createdAt,value
2023-05-14T00:00:59.913Z,0.00
2023-05-14T00:01:59.951Z,0.00
2023-05-14T00:02:59.975Z,0.00
2023-05-14T00:04:00.092Z,0.00
2023-05-14T00:04:59.836Z,0.00
2023-05-14T00:05:59.844Z,0.00
2023-05-14T00:06:59.820Z,0.00
2023-05-14T00:07:59.826Z,0.00
2023-05-14T00:08:59.798Z,0.00
2023-05-14T00:09:59.770Z,0.00
2023-05-14T00:10:59.772Z,0.00
2023-05-14T00:11:59.754Z,0.00
2023-05-14T00:12:59.771Z,0.00
2023-05-14T00:13:59.731Z,0.00
2023-05-14T00:14:59.716Z,0.00
2023-05-14T00:15:59.726Z,0.00
2023-05-14T00:16:59.688Z,0.00
2023-05-14T00:17:59.705Z,0.00
2023-05-14T00:18:59.703Z,0.00
2023-05-14T00:19:59.657Z,0.00
2023-05-14T00:20:59.627Z,0.00
2023-05-14T00:21:59.644Z,0.00
2023-05-14T00:22:59.605Z,0.00
2023-05-14T00:23:59.633Z,0.00
2023-05-14T00:24:59.606Z,0.00
2023-05-14T00:25:59.603Z,0.00
2023-05-14T00:26:59.567Z,0.00
2023-05-14T00:27:59.588Z,0.00
2023-05-14T00:28:59.577Z,0.00
2023-05-14T00:29:59.529Z,0.00
2023-05-14T00:30:59.572Z,0.00
2023-05-14T00:31:59.526Z,0.00
2023-05-14T00:32:59.565Z,0.00
2023-05-14T00:33:59.505Z,0.00
2023-05-14T00:34:59.540Z,0.00
2023-05-14T00:35:59.484Z,0.00
2023-05-14T00:36:59.447Z,0.00
2023-05-14T00:37:59.446Z,0.00
2023-05-14T00:38:59.435Z,0.00
2023-05-14T00:39:59.458Z,0.00
2023-05-14T00:40:59.403Z,0.00
2023-05-14T00:41:59.408Z,0.00
2023-05-14T00:42:59.390Z,0.00
2023-05-14T00:43:59.372Z,0.00
2023-05-14T00:44:59.370Z,0.00
2023-05-14T00:45:59.410Z,0.00
2023-05-14T00:46:59.503Z,0.00
2023-05-14T00:47:59.359Z,0.00
2023-05-14T00:48:59.297Z,0.00
2023-05-14T00:49:59.295Z,0.00
2023-05-14T00:50:59.332Z,0.00
2023-05-14T00:51:59.271Z,0.00
2023-05-14T00:52:59.262Z,0.00
2023-05-14T00:53:59.258Z,0.00
2023-05-14T00:55:00.231Z,0.00
2023-05-14T00:55:59.265Z,0.00
2023-05-14T00:56:59.215Z,0.00
2023-05-14T00:57:59.204Z,0.00
2023-05-14T00:58:59.187Z,0.00
2023-05-14T00:59:59.170Z,0.00
2023-05-14T01:00:59.155Z,0.00
2023-05-14T01:01:59.194Z,0.00
2023-05-14T01:02:59.185Z,0.00
2023-05-14T01:03:59.288Z,0.00
2023-05-14T01:04:59.132Z,0.00
2023-05-14T01:05:59.109Z,0.00
2023-05-14T01:06:59.129Z,0.00
2023-05-14T01:07:59.302Z,0.00
2023-05-14T01:08:59.076Z,0.00
2023-05-14T01:09:59.058Z,0.00
2023-05-14T01:10:59.032Z,0.00
2023-05-14T01:11:59.108Z,0.00
2023-05-14T01:12:59.042Z,0.00
2023-05-14T01:13:59.017Z,0.00
2023-05-14T01:14:58.993Z,0.00
2023-05-14T01:15:59.050Z,0.00
2023-05-14T01:16:59.178Z,0.00
2023-05-14T01:17:59.039Z,0.00
2023-05-14T01:18:58.967Z,0.00
2023-05-14T01:19:58.943Z,0.00
2023-05-14T01:20:58.909Z,0.00
2023-05-14T01:21:58.957Z,0.00
2023-05-14T01:22:58.945Z,0.00
2023-05-14T01:23:58.894Z,0.00
2023-05-14T01:24:58.899Z,0.00
2023-05-14T01:25:58.852Z,0.00
2023-05-14T01:26:58.855Z,0.00
2023-05-14T01:27:58.881Z,0.00
2023-05-14T01:28:58.824Z,0.00
2023-05-14T01:29:58.828Z,0.00
2023-05-14T01:30:58.821Z,0.00
2023-05-14T01:31:58.822Z,0.00
2023-05-14T01:32:58.835Z,0.00
2023-05-14T01:33:58.793Z,0.00
2023-05-14T01:34:58.756Z,0.00
2023-05-14T01:35:58.808Z,0.00
2023-05-14T01:36:58.736Z,0.00
2023-05-14T01:37:58.706Z,0.00
2023-05-14T01:38:59.743Z,0.00
2023-05-14T01:39:58.687Z,0.00
2023-05-14T01:40:58.673Z,0.00
2023-05-14T01:41:58.679Z,0.00
2023-05-14T01:42:58.685Z,0.00
2023-05-14T01:43:58.678Z,0.00
2023-05-14T01:44:58.649Z,0.00
2023-05-14T01:45:58.673Z,0.00
2023-05-14T01:46:58.627Z,0.00
2023-05-14T01:47:58.678Z,0.00
2023-05-14T01:48:58.643Z,0.00
2023-05-14T01:49:58.641Z,0.00
2023-05-14T01:50:58.615Z,0.00
2023-05-14T01:51:58.635Z,0.00
2023-05-14T01:52:58.654Z,0.00
2023-05-14T01:53:58.614Z,0.00
2023-05-14T01:54:58.569Z,0.00
2023-05-14T01:55:58.601Z,0.00
2023-05-14T01:56:58.520Z,0.00
2023-05-14T01:57:58.481Z,0.00
2023-05-14T01:58:58.573Z,0.00
2023-05-14T01:59:58.461Z,0.00
2023-05-14T02:00:58.486Z,0.00
2023-05-14T02:01:58.649Z,0.00
2023-05-14T02:02:59.024Z,0.00
2023-05-14T02:03:58.464Z,0.00
2023-05-14T02:04:58.426Z,0.00
2023-05-14T02:05:58.391Z,0.00
2023-05-14T02:06:58.374Z,0.00
2023-05-14T02:07:58.358Z,0.00
2023-05-14T02:08:58.369Z,0.00
2023-05-14T02:09:58.357Z,0.00
2023-05-14T02:10:58.345Z,0.00
2023-05-14T02:11:58.814Z,0.00
2023-05-14T02:12:58.335Z,0.00
2023-05-14T02:13:58.324Z,0.00
2023-05-14T02:14:58.288Z,0.00
2023-05-14T02:15:58.401Z,0.00
2023-05-14T02:16:58.293Z,0.00
2023-05-14T02:17:58.261Z,0.00
2023-05-14T02:18:58.318Z,0.00
2023-05-14T02:19:58.239Z,0.00
2023-05-14T02:20:58.204Z,0.00
2023-05-14T02:21:58.200Z,0.00
2023-05-14T02:22:58.222Z,0.00
2023-05-14T02:23:58.209Z,0.00
2023-05-14T02:24:58.180Z,0.00
2023-05-14T02:25:58.378Z,0.00
2023-05-14T02:26:58.144Z,0.00
2023-05-14T02:27:58.115Z,0.00
2023-05-14T02:28:58.131Z,0.00
2023-05-14T02:29:58.161Z,0.00
2023-05-14T02:30:58.123Z,0.00
2023-05-14T02:31:58.106Z,0.00
2023-05-14T02:32:58.136Z,0.00
2023-05-14T02:33:58.078Z,0.00
2023-05-14T02:34:58.086Z,0.00
2023-05-14T02:35:58.057Z,0.00
2023-05-14T02:36:58.010Z,0.00
2023-05-14T02:37:58.015Z,0.00
2023-05-14T02:38:58.091Z,0.00
2023-05-14T02:39:57.997Z,0.00
2023-05-14T02:40:58.008Z,0.00
2023-05-14T02:41:57.954Z,0.00
2023-05-14T02:42:57.966Z,0.00
2023-05-14T02:43:57.931Z,0.00
2023-05-14T02:44:57.921Z,0.00
2023-05-14T02:45:57.954Z,0.00
2023-05-14T02:46:57.934Z,0.00
2023-05-14T02:47:57.958Z,0.00
2023-05-14T02:48:57.888Z,0.00
2023-05-14T02:49:57.874Z,0.00
2023-05-14T02:50:57.857Z,0.00
2023-05-14T02:51:57.897Z,0.00
2023-05-14T02:52:57.842Z,0.00
2023-05-14T02:53:57.815Z,0.00
2023-05-14T02:54:57.804Z,0.00
2023-05-14T02:55:57.807Z,0.00
2023-05-14T02:56:57.812Z,0.00
2023-05-14T02:57:57.773Z,0.00
2023-05-14T02:58:57.774Z,0.00
2023-05-14T02:59:57.742Z,0.00
2023-05-14T03:00:57.782Z,0.00
2023-05-14T03:01:57.743Z,0.00
2023-05-14T03:02:57.716Z,0.00
2023-05-14T03:03:57.706Z,0.00
2023-05-14T03:04:57.694Z,4.00
2023-05-14T03:05:57.686Z,0.00
2023-05-14T03:06:58.504Z,0.00
2023-05-14T03:07:57.644Z,4.00
2023-05-14T03:08:57.648Z,4.00
2023-05-14T03:09:57.639Z,0.00
2023-05-14T03:10:57.638Z,4.00
2023-05-14T03:11:57.624Z,0.00
2023-05-14T03:12:57.598Z,4.00
2023-05-14T03:13:57.576Z,4.00
2023-05-14T03:14:57.577Z,8.00
2023-05-14T03:15:57.574Z,8.00
2023-05-14T03:16:57.666Z,8.00
2023-05-14T03:17:57.548Z,8.00
2023-05-14T03:18:57.583Z,8.00
2023-05-14T03:19:57.505Z,12.00
2023-05-14T03:20:58.567Z,12.00
2023-05-14T03:21:57.468Z,12.00
2023-05-14T03:22:57.467Z,12.00
2023-05-14T03:23:57.492Z,16.00
2023-05-14T03:24:57.441Z,20.00
2023-05-14T03:25:57.442Z,20.00
2023-05-14T03:26:57.479Z,24.00
2023-05-14T03:27:57.406Z,28.00
2023-05-14T03:28:57.397Z,28.00
2023-05-14T03:29:57.416Z,36.00
2023-05-14T03:30:57.379Z,36.00
2023-05-14T03:31:57.403Z,40.00
2023-05-14T03:32:58.388Z,48.00
2023-05-14T03:33:57.342Z,48.00
2023-05-14T03:34:57.327Z,52.00
2023-05-14T03:35:57.321Z,56.00
2023-05-14T03:36:57.305Z,56.00
2023-05-14T03:37:57.317Z,64.00
2023-05-14T03:38:57.272Z,68.00
2023-05-14T03:39:57.254Z,72.00
2023-05-14T03:40:57.257Z,76.00
2023-05-14T03:41:57.268Z,80.00
2023-05-14T03:42:57.337Z,88.00
2023-05-14T03:43:57.224Z,92.00
2023-05-14T03:44:57.196Z,96.00
2023-05-14T03:45:57.188Z,104.00
2023-05-14T03:46:57.203Z,108.00
2023-05-14T03:47:57.267Z,112.00
2023-05-14T03:48:57.207Z,120.00
2023-05-14T03:49:57.163Z,124.00
2023-05-14T03:50:57.139Z,128.00
2023-05-14T03:51:57.149Z,136.00
2023-05-14T03:52:57.101Z,144.00
2023-05-14T03:53:57.127Z,152.00
2023-05-14T03:54:57.081Z,156.00
2023-05-14T03:55:57.068Z,164.00
2023-05-14T03:56:57.069Z,172.00
2023-05-14T03:57:57.064Z,180.00
2023-05-14T03:58:57.066Z,188.00
2023-05-14T03:59:57.045Z,196.00
2023-05-14T04:00:57.028Z,200.00
2023-05-14T04:01:57.107Z,208.00
2023-05-14T04:02:57.034Z,212.00
2023-05-14T04:03:57.139Z,224.00
2023-05-14T04:04:57.002Z,228.00
2023-05-14T04:05:56.961Z,236.00
2023-05-14T04:06:56.958Z,244.00
2023-05-14T04:07:56.962Z,252.00
2023-05-14T04:08:56.979Z,260.00
2023-05-14T04:09:56.917Z,268.00
2023-05-14T04:10:56.947Z,276.00
2023-05-14T04:11:56.890Z,284.00
2023-05-14T04:12:56.914Z,292.00
2023-05-14T04:13:56.882Z,304.00
2023-05-14T04:14:56.866Z,312.00
2023-05-14T04:15:56.879Z,324.00
2023-05-14T04:16:56.835Z,328.00
2023-05-14T04:17:56.875Z,340.00
2023-05-14T04:18:56.894Z,348.00
2023-05-14T04:19:56.809Z,356.00
2023-05-14T04:20:56.799Z,364.00
2023-05-14T04:21:57.761Z,372.00
2023-05-14T04:22:56.765Z,380.00
2023-05-14T04:23:56.751Z,388.00
2023-05-14T04:24:56.733Z,392.00
2023-05-14T04:25:56.729Z,400.00
2023-05-14T04:26:56.708Z,404.00
2023-05-14T04:27:56.707Z,408.00
2023-05-14T04:28:56.702Z,416.00
2023-05-14T04:29:56.697Z,416.00
2023-05-14T04:30:56.679Z,424.00
2023-05-14T04:31:56.673Z,428.00
2023-05-14T04:32:56.712Z,432.00
2023-05-14T04:33:56.718Z,436.00
2023-05-14T04:34:56.672Z,444.00
2023-05-14T04:35:56.617Z,452.00
2023-05-14T04:36:56.641Z,460.00
2023-05-14T04:37:56.595Z,464.00
2023-05-14T04:38:56.672Z,468.00
2023-05-14T04:39:56.568Z,476.00
2023-05-14T04:40:56.574Z,484.00
2023-05-14T04:41:56.551Z,488.00
2023-05-14T04:42:56.614Z,496.00
2023-05-14T04:43:56.793Z,508.00
2023-05-14T04:44:56.670Z,516.00
2023-05-14T04:45:56.742Z,524.00
2023-05-14T04:46:56.534Z,532.00
2023-05-14T04:47:56.602Z,544.00
2023-05-14T04:48:56.523Z,556.00
2023-05-14T04:49:56.501Z,564.00
2023-05-14T04:50:56.460Z,580.00
2023-05-14T04:51:56.514Z,592.00
2023-05-14T04:52:56.657Z,604.00
2023-05-14T04:53:56.534Z,620.00
2023-05-14T04:54:56.480Z,636.00
2023-05-14T04:55:56.469Z,656.00
2023-05-14T04:56:56.867Z,672.00
2023-05-14T04:57:56.441Z,692.00
2023-05-14T04:58:56.415Z,708.00
2023-05-14T04:59:56.352Z,724.00
2023-05-14T05:00:56.391Z,740.00
2023-05-14T05:01:56.380Z,756.00
2023-05-14T05:02:56.321Z,772.00
2023-05-14T05:03:56.343Z,788.00
2023-05-14T05:04:56.307Z,804.00
2023-05-14T05:05:56.637Z,824.00
2023-05-14T05:06:56.258Z,844.00
2023-05-14T05:07:56.292Z,856.00
2023-05-14T05:08:56.289Z,872.00
2023-05-14T05:09:56.257Z,892.00
2023-05-14T05:10:56.210Z,900.00
2023-05-14T05:11:56.217Z,916.00
2023-05-14T05:12:56.201Z,928.00
2023-05-14T05:13:56.236Z,932.00
2023-05-14T05:14:56.185Z,948.00
2023-05-14T05:15:56.225Z,960.00
2023-05-14T05:16:56.163Z,968.00
2023-05-14T05:17:56.159Z,976.00
2023-05-14T05:18:56.139Z,988.00
2023-05-14T05:19:56.145Z,996.00
2023-05-14T05:20:56.136Z,1004.00
2023-05-14T05:21:56.245Z,1008.00
2023-05-14T05:22:56.123Z,1016.00
2023-05-14T05:23:57.069Z,1020.00
2023-05-14T05:24:56.095Z,1028.00
2023-05-14T05:25:56.057Z,1032.00
2023-05-14T05:26:56.050Z,1032.00
2023-05-14T05:27:56.089Z,1036.00
2023-05-14T05:28:56.036Z,1036.00
2023-05-14T05:29:55.996Z,1036.00
2023-05-14T05:30:56.015Z,1036.00
2023-05-14T05:31:56.066Z,1036.00
2023-05-14T05:32:56.056Z,1036.00
2023-05-14T05:33:55.957Z,1036.00
2023-05-14T05:34:55.978Z,1040.00
2023-05-14T05:35:55.952Z,1036.00
2023-05-14T05:36:55.920Z,1036.00
2023-05-14T05:37:55.891Z,1032.00
2023-05-14T05:38:56.967Z,1028.00
2023-05-14T05:39:55.892Z,1024.00
2023-05-14T05:40:55.891Z,1020.00
2023-05-14T05:41:55.856Z,1012.00
2023-05-14T05:42:55.873Z,1012.00
2023-05-14T05:43:55.847Z,1008.00
2023-05-14T05:44:55.840Z,1008.00
2023-05-14T05:45:55.854Z,1004.00
2023-05-14T05:46:55.916Z,1008.00
2023-05-14T05:47:56.009Z,1004.00
2023-05-14T05:48:55.804Z,1008.00
2023-05-14T05:49:55.819Z,1008.00
2023-05-14T05:50:55.832Z,1008.00
2023-05-14T05:51:56.490Z,1004.00
2023-05-14T05:52:55.760Z,1008.00
2023-05-14T05:53:55.744Z,1012.00
2023-05-14T05:54:55.727Z,1016.00
2023-05-14T05:55:55.710Z,1020.00
2023-05-14T05:56:55.758Z,1028.00
2023-05-14T05:57:55.677Z,1036.00
2023-05-14T05:58:55.698Z,1044.00
2023-05-14T05:59:55.672Z,1056.00
2023-05-14T06:00:56.371Z,1064.00
2023-05-14T06:01:55.673Z,1072.00
2023-05-14T06:02:55.690Z,1080.00
2023-05-14T06:03:55.644Z,1092.00
2023-05-14T06:04:55.688Z,1100.00
2023-05-14T06:05:55.623Z,1104.00
2023-05-14T06:06:55.578Z,1108.00
2023-05-14T06:07:55.636Z,1120.00
2023-05-14T06:08:55.575Z,1136.00
2023-05-14T06:09:55.546Z,1144.00
2023-05-14T06:10:55.548Z,1164.00
2023-05-14T06:11:55.539Z,1180.00
2023-05-14T06:12:55.550Z,1200.00
2023-05-14T06:13:55.505Z,1220.00
2023-05-14T06:14:55.575Z,1248.00
2023-05-14T06:15:55.479Z,1268.00
2023-05-14T06:16:55.630Z,1292.00
2023-05-14T06:17:55.515Z,1316.00
2023-05-14T06:18:55.517Z,1340.00
2023-05-14T06:19:55.471Z,1360.00
2023-05-14T06:20:55.611Z,1384.00
2023-05-14T06:21:55.633Z,1404.00
2023-05-14T06:23:30.794Z,1420.00
2023-05-14T06:23:55.654Z,1436.00
2023-05-14T07:14:37.678Z,3064.00
2023-05-14T07:15:38.648Z,3076.00
2023-05-14T07:16:38.830Z,3084.00
2023-05-14T07:17:38.652Z,3084.00
2023-05-14T07:18:38.621Z,3076.00
2023-05-14T07:19:38.622Z,3072.00
2023-05-14T07:20:38.586Z,3084.00
2023-05-14T07:21:38.619Z,3112.00
2023-05-14T07:22:38.585Z,3152.00
2023-05-14T07:23:38.550Z,3192.00
2023-05-14T07:24:38.573Z,3236.00
2023-05-14T07:25:38.531Z,3284.00
2023-05-14T07:26:38.555Z,3312.00
2023-05-14T07:27:38.612Z,3336.00
2023-05-14T07:28:38.699Z,3348.00
2023-05-14T07:29:38.644Z,3356.00
2023-05-14T07:31:14.510Z,3364.00
2023-05-14T07:31:38.852Z,3372.00
2023-05-14T07:32:38.577Z,3380.00
2023-05-14T07:33:38.517Z,3388.00
2023-05-14T07:34:38.767Z,3396.00
2023-05-14T07:35:38.487Z,3404.00
2023-05-14T07:36:38.554Z,3416.00
2023-05-14T07:37:39.153Z,3432.00
2023-05-14T07:47:57.895Z,3720.00
2023-05-14T07:48:57.810Z,3744.00
2023-05-14T07:49:57.911Z,3764.00
2023-05-14T07:50:57.726Z,3788.00
2023-05-14T07:51:57.677Z,3808.00
2023-05-14T07:52:57.843Z,3824.00
2023-05-14T07:53:57.690Z,3852.00
2023-05-14T07:54:57.672Z,3868.00
2023-05-14T07:55:57.633Z,3892.00
2023-05-14T07:56:57.645Z,3916.00
2023-05-14T08:05:39.420Z,4108.00
2023-05-14T08:06:39.494Z,4156.00
2023-05-14T08:07:39.349Z,4220.00
2023-05-14T08:08:39.298Z,4280.00
2023-05-14T08:09:39.291Z,4336.00
2023-05-14T08:10:39.389Z,4380.00
2023-05-14T08:11:39.314Z,4416.00
2023-05-14T08:12:39.296Z,4456.00
2023-05-14T08:13:39.248Z,4492.00
2023-05-14T08:14:39.289Z,4540.00
2023-05-14T08:15:39.336Z,4616.00
2023-05-14T08:16:40.627Z,4684.00
2023-05-14T08:17:40.371Z,4736.00
2023-05-14T08:18:40.368Z,4764.00
2023-05-14T08:19:40.313Z,4804.00
2023-05-14T08:20:40.283Z,4820.00
2023-05-14T08:21:40.326Z,4816.00
2023-05-14T08:22:40.266Z,4816.00
2023-05-14T08:23:40.266Z,4768.00
2023-05-14T08:24:40.239Z,4736.00
2023-05-14T08:25:40.228Z,4708.00
2023-05-14T08:26:40.248Z,4680.00
2023-05-14T08:27:40.188Z,4664.00
2023-05-14T08:28:40.195Z,4668.00
2023-05-14T08:29:40.168Z,4676.00
2023-05-14T08:30:40.164Z,4684.00
2023-05-14T08:31:40.160Z,4696.00
2023-05-14T08:32:40.195Z,4704.00
2023-05-14T08:33:40.124Z,4716.00
2023-05-14T08:34:40.430Z,4736.00
2023-05-14T08:35:40.110Z,4756.00
2023-05-14T08:36:40.081Z,4788.00
2023-05-14T08:37:40.128Z,4828.00
2023-05-14T08:38:40.056Z,4896.00
2023-05-14T08:39:40.059Z,5000.00
2023-05-14T08:40:40.049Z,5200.00
2023-05-14T08:41:40.010Z,5632.00
2023-05-14T08:42:40.031Z,7492.00
2023-05-14T08:43:40.014Z,5692.00
2023-05-14T08:44:40.009Z,7020.00
2023-05-14T08:45:39.990Z,7168.00
2023-05-14T08:46:39.969Z,7804.00
2023-05-14T08:47:39.998Z,7360.00
2023-05-14T08:48:39.977Z,7820.00
2023-05-14T08:49:39.939Z,7768.00
2023-05-14T08:50:39.916Z,7692.00
2023-05-14T08:51:39.885Z,7644.00
2023-05-14T08:52:39.903Z,7580.00
2023-05-14T08:53:40.010Z,7548.00
2023-05-14T08:54:39.859Z,7508.00
2023-05-14T08:55:39.873Z,7540.00
2023-05-14T08:56:39.830Z,7524.00
2023-05-14T08:57:39.822Z,7560.00
2023-05-14T08:58:39.821Z,7596.00
2023-05-14T08:59:39.856Z,7668.00
2023-05-14T09:00:39.777Z,7644.00
2023-05-14T09:01:39.818Z,7056.00
2023-05-14T09:02:39.851Z,7436.00
2023-05-14T09:03:39.821Z,5900.00
2023-05-14T09:04:39.775Z,5888.00
2023-05-14T09:05:39.712Z,5920.00
2023-05-14T09:06:39.718Z,5676.00
2023-05-14T09:07:39.682Z,5800.00
2023-05-14T09:08:39.789Z,5780.00
2023-05-14T09:09:39.726Z,5968.00
2023-05-14T09:10:39.680Z,6040.00
2023-05-14T09:11:39.649Z,7896.00
2023-05-14T09:12:39.636Z,8076.00
2023-05-14T09:13:39.611Z,8248.00
2023-05-14T09:14:39.595Z,8308.00
2023-05-14T09:15:39.622Z,7060.00
2023-05-14T09:16:39.614Z,7656.00
2023-05-14T09:17:39.567Z,7852.00
2023-05-14T09:18:39.587Z,6104.00
2023-05-14T09:19:39.551Z,5640.00
2023-05-14T09:20:39.572Z,5428.00
2023-05-14T09:21:39.565Z,5432.00
2023-05-14T09:22:39.504Z,6976.00
2023-05-14T09:23:39.496Z,7780.00
2023-05-14T09:24:39.484Z,7656.00
2023-05-14T09:25:39.547Z,8028.00
2023-05-14T09:26:39.470Z,6628.00
2023-05-14T09:27:39.437Z,6752.00
2023-05-14T09:28:39.424Z,6164.00
2023-05-14T09:29:39.436Z,6004.00
2023-05-14T09:30:39.407Z,6100.00
2023-05-14T09:31:39.495Z,6036.00
2023-05-14T09:32:39.476Z,6240.00
2023-05-14T09:33:39.384Z,6240.00
2023-05-14T09:34:39.358Z,6748.00
2023-05-14T09:35:39.342Z,6740.00
2023-05-14T09:36:39.380Z,7540.00
2023-05-14T09:37:39.314Z,7940.00
2023-05-14T09:38:39.316Z,6596.00
2023-05-14T09:39:39.298Z,8976.00
2023-05-14T09:40:39.276Z,8080.00
2023-05-14T09:41:39.263Z,7892.00
2023-05-14T09:42:39.274Z,7928.00
2023-05-14T09:43:39.252Z,8772.00
2023-05-14T09:44:39.240Z,7860.00
2023-05-14T09:45:39.206Z,7572.00
2023-05-14T09:46:39.213Z,8460.00
2023-05-14T09:47:39.271Z,6560.00
2023-05-14T09:48:39.727Z,6544.00
2023-05-14T09:49:39.173Z,8228.00
2023-05-14T09:50:39.172Z,7848.00
2023-05-14T09:51:39.134Z,8304.00
2023-05-14T09:52:39.151Z,8536.00
2023-05-14T09:53:39.121Z,8548.00
2023-05-14T09:54:39.089Z,7292.00
2023-05-14T09:55:39.098Z,6132.00
2023-05-14T09:56:39.081Z,6212.00
2023-05-14T09:57:39.496Z,6152.00
2023-05-14T09:58:39.132Z,6116.00
2023-05-14T09:59:39.051Z,6120.00
2023-05-14T10:00:39.028Z,6152.00
2023-05-14T10:01:39.316Z,6164.00
2023-05-14T10:02:39.091Z,6592.00
2023-05-14T10:03:39.049Z,7888.00
2023-05-14T10:04:39.067Z,8396.00
2023-05-14T10:05:38.979Z,8136.00
2023-05-14T10:06:38.951Z,8092.00
2023-05-14T10:07:38.942Z,8064.00
2023-05-14T10:08:38.943Z,8056.00
2023-05-14T10:09:38.954Z,8004.00
2023-05-14T10:10:38.922Z,7960.00
2023-05-14T10:11:38.964Z,7952.00
2023-05-14T10:12:38.871Z,7908.00
2023-05-14T10:13:38.874Z,7960.00
2023-05-14T10:14:39.133Z,8016.00
2023-05-14T10:15:38.894Z,8044.00
2023-05-14T10:16:38.880Z,8308.00
2023-05-14T10:17:38.938Z,8316.00
2023-05-14T10:18:38.848Z,6620.00
2023-05-14T10:19:38.814Z,6344.00
2023-05-14T10:20:38.856Z,6652.00
2023-05-14T10:21:38.779Z,6380.00
2023-05-14T10:22:38.765Z,6120.00
2023-05-14T10:23:38.739Z,6140.00
2023-05-14T10:24:38.803Z,8204.00
2023-05-14T10:25:38.756Z,8452.00
2023-05-14T10:26:38.738Z,6712.00
2023-05-14T10:27:38.751Z,6480.00
2023-05-14T10:28:38.682Z,7892.00
2023-05-14T10:29:38.710Z,5880.00
2023-05-14T10:30:38.731Z,5900.00
2023-05-14T10:31:38.819Z,6204.00
2023-05-14T10:32:38.708Z,6288.00
2023-05-14T10:33:38.674Z,5924.00
2023-05-14T10:34:38.734Z,5760.00
2023-05-14T10:35:38.624Z,5780.00
2023-05-14T10:36:38.634Z,5876.00
2023-05-14T10:37:38.808Z,5900.00
2023-05-14T10:38:38.631Z,5892.00
2023-05-14T10:39:38.580Z,7416.00
2023-05-14T10:40:38.612Z,7792.00
2023-05-14T10:41:38.564Z,7740.00
2023-05-14T10:42:38.727Z,8464.00
2023-05-14T10:43:39.367Z,8512.00
2023-05-14T10:44:38.561Z,8112.00
2023-05-14T10:45:38.541Z,8008.00
2023-05-14T10:46:38.592Z,7356.00
2023-05-14T10:47:38.569Z,5944.00
2023-05-14T10:48:38.489Z,5828.00
2023-05-14T10:49:43.538Z,5932.00
2023-05-14T10:50:38.495Z,6220.00
2023-05-14T10:51:38.611Z,8536.00
2023-05-14T10:52:39.204Z,8488.00
2023-05-14T10:53:38.432Z,8300.00
2023-05-14T10:54:38.459Z,8328.00
2023-05-14T10:55:38.506Z,8304.00
2023-05-14T10:56:38.465Z,7444.00
2023-05-14T10:57:38.431Z,7512.00
2023-05-14T10:58:38.394Z,7652.00
2023-05-14T10:59:38.494Z,7824.00
2023-05-14T11:00:38.384Z,7680.00
2023-05-14T11:01:38.436Z,7884.00
2023-05-14T11:02:38.418Z,8060.00
2023-05-14T11:03:38.366Z,8224.00
2023-05-14T11:04:38.326Z,7680.00
2023-05-14T11:05:38.296Z,7124.00
2023-05-14T11:06:38.306Z,7100.00
2023-05-14T11:07:38.309Z,6592.00
2023-05-14T11:08:38.277Z,6952.00
2023-05-14T11:09:38.578Z,7416.00
2023-05-14T11:10:39.172Z,7924.00
2023-05-14T11:11:38.220Z,8464.00
2023-05-14T11:12:38.283Z,8396.00
2023-05-14T11:13:38.230Z,7928.00
2023-05-14T11:14:38.463Z,8252.00
2023-05-14T11:15:39.283Z,7968.00
2023-05-14T11:16:38.179Z,8056.00
2023-05-14T11:17:38.371Z,7664.00
2023-05-14T11:18:38.207Z,7376.00
2023-05-14T11:19:38.180Z,6696.00
2023-05-14T11:20:38.120Z,6812.00
2023-05-14T11:21:38.263Z,7956.00
2023-05-14T11:22:38.164Z,7004.00
2023-05-14T11:23:38.134Z,7100.00
2023-05-14T11:24:38.067Z,6816.00
2023-05-14T11:25:38.114Z,6888.00
2023-05-14T11:26:38.026Z,7408.00
2023-05-14T11:27:38.194Z,7088.00
2023-05-14T11:28:38.110Z,7308.00
2023-05-14T11:29:38.028Z,7552.00
2023-05-14T11:30:38.011Z,7884.00
2023-05-14T11:31:38.122Z,8120.00
2023-05-14T11:32:38.032Z,6628.00
2023-05-14T11:33:38.050Z,7968.00
2023-05-14T11:34:37.970Z,8488.00
2023-05-14T11:35:37.981Z,8352.00
2023-05-14T11:36:37.950Z,7944.00
2023-05-14T11:37:37.889Z,6260.00
2023-05-14T11:38:37.903Z,5768.00
2023-05-14T11:39:38.000Z,5720.00
2023-05-14T11:40:37.844Z,5716.00
2023-05-14T11:41:37.830Z,5912.00
2023-05-14T11:42:37.813Z,6472.00
2023-05-14T11:43:37.858Z,5696.00
2023-05-14T11:44:37.812Z,5684.00
2023-05-14T11:45:37.802Z,5672.00
2023-05-14T11:46:37.834Z,5556.00
2023-05-14T11:47:37.864Z,5676.00
2023-05-14T11:48:37.781Z,5824.00
2023-05-14T11:49:37.749Z,6948.00
2023-05-14T11:50:37.716Z,7912.00
2023-05-14T11:51:37.714Z,7572.00
2023-05-14T11:52:37.733Z,7844.00
2023-05-14T11:53:37.696Z,7848.00
2023-05-14T11:54:37.671Z,6000.00
2023-05-14T11:55:37.770Z,5676.00
2023-05-14T11:56:37.660Z,5652.00
2023-05-14T11:57:37.633Z,5688.00
2023-05-14T11:58:37.697Z,5840.00
2023-05-14T11:59:37.619Z,5868.00
2023-05-14T12:00:37.677Z,5860.00
2023-05-14T12:01:37.623Z,5724.00
2023-05-14T12:02:37.706Z,5656.00
2023-05-14T12:03:37.820Z,5704.00
2023-05-14T12:04:37.619Z,6336.00
2023-05-14T12:05:37.605Z,6160.00
2023-05-14T12:06:37.646Z,7696.00
2023-05-14T12:07:37.539Z,7972.00
2023-05-14T12:08:37.528Z,7700.00
2023-05-14T12:09:37.532Z,6200.00
2023-05-14T12:10:37.485Z,6764.00
2023-05-14T12:11:37.518Z,6192.00
2023-05-14T12:12:37.544Z,6768.00
2023-05-14T12:13:37.464Z,6352.00
2023-05-14T12:14:37.478Z,5968.00
2023-05-14T12:15:37.488Z,6100.00
2023-05-14T12:16:38.500Z,6048.00
2023-05-14T12:17:38.481Z,6124.00
2023-05-14T12:18:37.509Z,7096.00
2023-05-14T12:19:37.406Z,6752.00
2023-05-14T12:20:37.368Z,6536.00
2023-05-14T12:21:37.355Z,6364.00
2023-05-14T12:22:37.368Z,6308.00
2023-05-14T12:23:37.320Z,6428.00
2023-05-14T12:24:37.313Z,6612.00
2023-05-14T12:25:37.372Z,7960.00
2023-05-14T12:26:37.430Z,8552.00
2023-05-14T12:27:37.584Z,6760.00
2023-05-14T12:28:38.530Z,6688.00
2023-05-14T12:29:37.384Z,6640.00
2023-05-14T12:30:37.285Z,6600.00
2023-05-14T12:31:37.384Z,6584.00
2023-05-14T12:32:37.456Z,6572.00
2023-05-14T12:33:37.321Z,6548.00
2023-05-14T12:34:37.678Z,6516.00
2023-05-14T13:29:16.877Z,4284.00
2023-05-14T13:30:18.701Z,4372.00
2023-05-14T13:31:18.460Z,4452.00
2023-05-14T13:32:17.827Z,4532.00
2023-05-14T13:33:18.293Z,4616.00
2023-05-14T13:34:18.062Z,4680.00
2023-05-14T13:35:17.897Z,4720.00
2023-05-14T13:36:17.970Z,4812.00
2023-05-14T13:37:19.127Z,4964.00
2023-05-14T13:38:19.426Z,5132.00
2023-05-14T13:39:18.155Z,5164.00
2023-05-14T13:40:18.708Z,5308.00
2023-05-14T13:41:18.165Z,5492.00
2023-05-14T13:42:18.844Z,5640.00
2023-05-14T13:43:18.190Z,5964.00
2023-05-14T13:44:18.160Z,5756.00
2023-05-14T13:45:18.065Z,6080.00
2023-05-14T13:46:17.929Z,6352.00
2023-05-14T13:47:18.396Z,6504.00
2023-05-14T13:48:17.831Z,6608.00
2023-05-14T13:49:17.731Z,6744.00
2023-05-14T13:50:17.854Z,5884.00
2023-05-14T13:51:17.656Z,6784.00
2023-05-14T13:52:17.666Z,6892.00
2023-05-14T13:53:17.569Z,6924.00
2023-05-14T13:54:17.595Z,6964.00
2023-05-14T13:55:17.587Z,6992.00
2023-05-14T13:56:17.551Z,7008.00
2023-05-14T13:57:18.606Z,7028.00
2023-05-14T13:58:17.504Z,7068.00
2023-05-14T13:59:17.525Z,6928.00
2023-05-14T14:00:17.625Z,6884.00
2023-05-14T14:01:17.826Z,6748.00
2023-05-14T14:02:17.486Z,5420.00
2023-05-14T14:03:17.491Z,5148.00
2023-05-14T14:04:17.437Z,4952.00
2023-05-14T14:05:18.097Z,4808.00
2023-05-14T14:06:17.813Z,4716.00
2023-05-14T14:07:17.487Z,4564.00
2023-05-14T14:08:23.537Z,4252.00
2023-05-14T14:09:18.596Z,3928.00
2023-05-14T14:10:17.519Z,3816.00
2023-05-14T14:11:17.489Z,3720.00
2023-05-14T14:12:17.838Z,3572.00
2023-05-14T14:13:17.471Z,3424.00
2023-05-14T15:41:00.020Z,3568.00
2023-05-14T15:42:01.104Z,3808.00
2023-05-14T15:43:01.181Z,3928.00
2023-05-14T15:44:01.038Z,4120.00
2023-05-14T15:45:00.967Z,4184.00
2023-05-14T15:46:00.984Z,3892.00
2023-05-14T15:47:00.961Z,3936.00
2023-05-14T15:48:00.980Z,4016.00
2023-05-14T15:49:01.373Z,4088.00
2023-05-14T15:50:00.989Z,4156.00
2023-05-14T15:51:00.896Z,4240.00
2023-05-14T18:25:23.988Z,352.00
2023-05-14T18:26:24.907Z,336.00
2023-05-14T18:27:25.205Z,320.00
2023-05-14T18:28:24.755Z,304.00
2023-05-14T18:29:25.750Z,288.00